Terminal Aerodrome Forecast
Issued by NWS Charleston, WV

Current Version | Previous Version | Graphics & Text | Print | Product List | Glossary On
Versions: 1 2 3 4 5 6 7 8 9 10 11 12 13 14 15 16 17 18 19 20 21 22 23 24
000
FTUS41 KRLX 300200 AAA
TAFPKB
TAF AMD
KPKB 300259Z 3003/3024 00000KT P6SM SKC
     FM300400 00000KT 5SM BR BKN045
     FM300500 00000KT 1/2SM FG VV001
     FM301300 00000KT 3SM BR FEW045
     FM301330 00000KT P6SM SCT045
     FM301600 28005KT P6SM BKN045=

USA.gov is the U.S. government's official web portal to all federal, state and local government web resources and services.